sensor_id;sensor_type;location;lat;lon;timestamp;pressure;altitude;pressure_sealevel;temperature;humidity
42945;BME280;28584;42.636;23.294;2023-05-20T00:00:05;161516.41;;;11.12;100.00
42945;BME280;28584;42.636;23.294;2023-05-20T00:02:31;161524.44;;;11.15;100.00
42945;BME280;28584;42.636;23.294;2023-05-20T00:04:57;161497.69;;;11.05;100.00
42945;BME280;28584;42.636;23.294;2023-05-20T00:07:22;161449.59;;;10.87;100.00
42945;BME280;28584;42.636;23.294;2023-05-20T00:09:48;161390.78;;;10.65;100.00
42945;BME280;28584;42.636;23.294;2023-05-20T00:12:13;161389.47;;;10.65;100.00
42945;BME280;28584;42.636;23.294;2023-05-20T00:14:38;161465.66;;;10.93;100.00
42945;BME280;28584;42.636;23.294;2023-05-20T00:17:04;161436.22;;;10.82;100.00
42945;BME280;28584;42.636;23.294;2023-05-20T00:19:29;161356.09;;;10.52;100.00
42945;BME280;28584;42.636;23.294;2023-05-20T00:21:55;161370.78;;;10.58;100.00
42945;BME280;28584;42.636;23.294;2023-05-20T00:24:22;161358.75;;;10.53;100.00
42945;BME280;28584;42.636;23.294;2023-05-20T00:26:50;161376.09;;;10.60;100.00
42945;BME280;28584;42.636;23.294;2023-05-20T00:29:16;161326.66;;;10.41;100.00
42945;BME280;28584;42.636;23.294;2023-05-20T00:31:41;161385.47;;;10.63;100.00
42945;BME280;28584;42.636;23.294;2023-05-20T00:34:07;161458.94;;;10.91;100.00
42945;BME280;28584;42.636;23.294;2023-05-20T00:36:33;161452.25;;;10.88;100.00
42945;BME280;28584;42.636;23.294;2023-05-20T00:38:58;161479.00;;;10.98;100.00
42945;BME280;28584;42.636;23.294;2023-05-20T00:41:24;161497.69;;;11.05;100.00
42945;BME280;28584;42.636;23.294;2023-05-20T00:43:53;161433.56;;;10.81;100.00
42945;BME280;28584;42.636;23.294;2023-05-20T00:46:19;161446.91;;;10.86;100.00
42945;BME280;28584;42.636;23.294;2023-05-20T00:48:45;161417.50;;;10.75;100.00
42945;BME280;28584;42.636;23.294;2023-05-20T00:51:12;161388.13;;;10.64;100.00
42945;BME280;28584;42.636;23.294;2023-05-20T00:53:38;161388.13;;;10.64;100.00
42945;BME280;28584;42.636;23.294;2023-05-20T00:56:04;161365.41;;;10.56;100.00
42945;BME280;28584;42.636;23.294;2023-05-20T00:58:30;161350.72;;;10.50;100.00
42945;BME280;28584;42.636;23.294;2023-05-20T01:00:56;161370.78;;;10.58;100.00
42945;BME280;28584;42.636;23.294;2023-05-20T01:03:21;161350.72;;;10.50;100.00
42945;BME280;28584;42.636;23.294;2023-05-20T01:05:46;161356.09;;;10.52;100.00
42945;BME280;28584;42.636;23.294;2023-05-20T01:08:12;161340.03;;;10.46;100.00
42945;BME280;28584;42.636;23.294;2023-05-20T01:10:41;161412.19;;;10.73;100.00
42945;BME280;28584;42.636;23.294;2023-05-20T01:13:09;161474.97;;;10.97;100.00
42945;BME280;28584;42.636;23.294;2023-05-20T01:15:38;161501.72;;;11.07;100.00
42945;BME280;28584;42.636;23.294;2023-05-20T01:18:07;161496.34;;;11.05;100.00
42945;BME280;28584;42.636;23.294;2023-05-20T01:20:35;161468.31;;;10.94;100.00
42945;BME280;28584;42.636;23.294;2023-05-20T01:23:01;161418.88;;;10.76;100.00
42945;BME280;28584;42.636;23.294;2023-05-20T01:25:27;161488.31;;;11.02;100.00
42945;BME280;28584;42.636;23.294;2023-05-20T01:27:54;161595.28;;;11.42;100.00
42945;BME280;28584;42.636;23.294;2023-05-20T01:30:23;161571.19;;;11.33;100.00
42945;BME280;28584;42.636;23.294;2023-05-20T01:32:53;161580.56;;;11.37;100.00
42945;BME280;28584;42.636;23.294;2023-05-20T01:35:21;161512.41;;;11.11;100.00
42945;BME280;28584;42.636;23.294;2023-05-20T01:37:49;161527.09;;;11.16;100.00
42945;BME280;28584;42.636;23.294;2023-05-20T01:40:17;161484.38;;;11.00;100.00
42945;BME280;28584;42.636;23.294;2023-05-20T01:42:43;161466.97;;;10.94;100.00
42945;BME280;28584;42.636;23.294;2023-05-20T01:45:10;161417.50;;;10.75;100.00
42945;BME280;28584;42.636;23.294;2023-05-20T01:47:36;161401.50;;;10.69;100.00
42945;BME280;28584;42.636;23.294;2023-05-20T01:50:01;161396.16;;;10.67;100.00
42945;BME280;28584;42.636;23.294;2023-05-20T01:52:27;161417.50;;;10.75;100.00
42945;BME280;28584;42.636;23.294;2023-05-20T01:54:53;161416.19;;;10.75;100.00
42945;BME280;28584;42.636;23.294;2023-05-20T01:57:22;161388.13;;;10.64;100.00
42945;BME280;28584;42.636;23.294;2023-05-20T01:59:47;161394.78;;;10.67;100.00
42945;BME280;28584;42.636;23.294;2023-05-20T02:02:14;161396.16;;;10.67;100.00
42945;BME280;28584;42.636;23.294;2023-05-20T02:04:39;161401.50;;;10.69;100.00
42945;BME280;28584;42.636;23.294;2023-05-20T02:07:06;161394.78;;;10.67;100.00
42945;BME280;28584;42.636;23.294;2023-05-20T02:09:32;161382.81;;;10.62;100.00
42945;BME280;28584;42.636;23.294;2023-05-20T02:11:57;161388.13;;;10.64;100.00
42945;BME280;28584;42.636;23.294;2023-05-20T02:14:23;161353.38;;;10.51;100.00
42945;BME280;28584;42.636;23.294;2023-05-20T02:16:48;161302.63;;;10.32;100.00
42945;BME280;28584;42.636;23.294;2023-05-20T02:19:14;161328.00;;;10.42;100.00
42945;BME280;28584;42.636;23.294;2023-05-20T02:21:44;161389.47;;;10.65;100.00
42945;BME280;28584;42.636;23.294;2023-05-20T02:24:11;161460.28;;;10.91;100.00
42945;BME280;28584;42.636;23.294;2023-05-20T02:26:36;161473.63;;;10.96;100.00
42945;BME280;28584;42.636;23.294;2023-05-20T02:29:01;161462.94;;;10.92;100.00
42945;BME280;28584;42.636;23.294;2023-05-20T02:31:27;161453.63;;;10.89;100.00
42945;BME280;28584;42.636;23.294;2023-05-20T02:33:52;161422.88;;;10.77;100.00
42945;BME280;28584;42.636;23.294;2023-05-20T02:36:18;161396.16;;;10.67;100.00
42945;BME280;28584;42.636;23.294;2023-05-20T02:38:43;161349.38;;;10.50;100.00
42945;BME280;28584;42.636;23.294;2023-05-20T02:41:08;161321.34;;;10.39;100.00
42945;BME280;28584;42.636;23.294;2023-05-20T02:43:34;161282.59;;;10.25;100.00
42945;BME280;28584;42.636;23.294;2023-05-20T02:46:03;161247.84;;;10.12;100.00
42945;BME280;28584;42.636;23.294;2023-05-20T02:48:28;161218.44;;;10.01;100.00
42945;BME280;28584;42.636;23.294;2023-05-20T02:50:54;161214.41;;;9.99;100.00
42945;BME280;28584;42.636;23.294;2023-05-20T02:53:20;161199.75;;;9.94;100.00
42945;BME280;28584;42.636;23.294;2023-05-20T02:55:45;161275.91;;;10.22;100.00
42945;BME280;28584;42.636;23.294;2023-05-20T02:58:14;161258.59;;;10.16;100.00
42945;BME280;28584;42.636;23.294;2023-05-20T03:00:40;161242.53;;;10.10;100.00
42945;BME280;28584;42.636;23.294;2023-05-20T03:03:06;161275.91;;;10.22;100.00
42945;BME280;28584;42.636;23.294;2023-05-20T03:05:32;161298.63;;;10.31;100.00
42945;BME280;28584;42.636;23.294;2023-05-20T03:07:57;161332.03;;;10.43;100.00
42945;BME280;28584;42.636;23.294;2023-05-20T03:10:23;161357.38;;;10.53;100.00
42945;BME280;28584;42.636;23.294;2023-05-20T03:12:48;161380.09;;;10.61;100.00
42945;BME280;28584;42.636;23.294;2023-05-20T03:15:14;161406.81;;;10.71;100.00
42945;BME280;28584;42.636;23.294;2023-05-20T03:17:39;161441.59;;;10.84;100.00
42945;BME280;28584;42.636;23.294;2023-05-20T03:20:05;161491.03;;;11.03;100.00
42945;BME280;28584;42.636;23.294;2023-05-20T03:22:31;161599.28;;;11.44;100.00
42945;BME280;28584;42.636;23.294;2023-05-20T03:24:57;161717.03;;;11.88;100.00
42945;BME280;28584;42.636;23.294;2023-05-20T03:27:24;161787.88;;;12.14;100.00
42945;BME280;28584;42.636;23.294;2023-05-20T03:29:52;161873.50;;;12.46;100.00
42945;BME280;28584;42.636;23.294;2023-05-20T03:32:20;161898.91;;;12.56;100.00
42945;BME280;28584;42.636;23.294;2023-05-20T03:34:45;161944.41;;;12.73;100.00
42945;BME280;28584;42.636;23.294;2023-05-20T03:37:10;161997.94;;;12.93;100.00
42945;BME280;28584;42.636;23.294;2023-05-20T03:39:36;162011.31;;;12.98;100.00
42945;BME280;28584;42.636;23.294;2023-05-20T03:42:01;162016.72;;;13.00;100.00
42945;BME280;28584;42.636;23.294;2023-05-20T03:44:27;162048.88;;;13.12;100.00
42945;BME280;28584;42.636;23.294;2023-05-20T03:46:52;162072.94;;;13.21;100.00
42945;BME280;28584;42.636;23.294;2023-05-20T03:49:17;162119.81;;;13.38;100.00
42945;BME280;28584;42.636;23.294;2023-05-20T03:51:43;162182.72;;;13.62;100.00
42945;BME280;28584;42.636;23.294;2023-05-20T03:54:08;162307.28;;;14.09;100.00
42945;BME280;28584;42.636;23.294;2023-05-20T03:56:34;162402.47;;;14.44;100.00
42945;BME280;28584;42.636;23.294;2023-05-20T03:59:00;162417.22;;;14.50;100.00
42945;BME280;28584;42.636;23.294;2023-05-20T04:01:26;162496.28;;;14.79;100.00
42945;BME280;28584;42.636;23.294;2023-05-20T04:03:51;162552.56;;;15.00;100.00
42945;BME280;28584;42.636;23.294;2023-05-20T04:06:16;162697.38;;;15.54;100.00
42945;BME280;28584;42.636;23.294;2023-05-20T04:08:42;162678.59;;;15.47;100.00
42945;BME280;28584;42.636;23.294;2023-05-20T04:11:08;162780.53;;;15.85;100.00
42945;BME280;28584;42.636;23.294;2023-05-20T04:13:33;162920.03;;;16.37;100.00
42945;BME280;28584;42.636;23.294;2023-05-20T04:15:59;162925.41;;;16.39;100.00
42945;BME280;28584;42.636;23.294;2023-05-20T04:18:26;162840.88;;;16.08;100.00
42945;BME280;28584;42.636;23.294;2023-05-20T04:20:54;163023.44;;;16.76;100.00
42945;BME280;28584;42.636;23.294;2023-05-20T04:23:24;163184.50;;;17.36;100.00
42945;BME280;28584;42.636;23.294;2023-05-20T04:25:49;163283.94;;;17.73;94.66
42945;BME280;28584;42.636;23.294;2023-05-20T04:28:15;163317.50;;;17.86;84.04
42945;BME280;28584;42.636;23.294;2023-05-20T04:30:41;163410.22;;;18.20;77.77
42945;BME280;28584;42.636;23.294;2023-05-20T04:33:07;163367.22;;;18.04;80.42
42945;BME280;28584;42.636;23.294;2023-05-20T04:35:32;163505.66;;;18.56;78.49
42945;BME280;28584;42.636;23.294;2023-05-20T04:37:59;163633.38;;;19.03;77.61
42945;BME280;28584;42.636;23.294;2023-05-20T04:40:25;163507.00;;;18.56;70.21
42945;BME280;28584;42.636;23.294;2023-05-20T04:42:51;163476.09;;;18.45;75.20
42945;BME280;28584;42.636;23.294;2023-05-20T04:45:17;163516.44;;;18.60;72.49
42945;BME280;28584;42.636;23.294;2023-05-20T04:47:42;163564.81;;;18.78;70.09
42945;BME280;28584;42.636;23.294;2023-05-20T04:50:09;163134.88;;;17.18;94.88
42945;BME280;28584;42.636;23.294;2023-05-20T04:52:35;163145.59;;;17.22;100.00
42945;BME280;28584;42.636;23.294;2023-05-20T04:55:02;163238.28;;;17.56;100.00
42945;BME280;28584;42.636;23.294;2023-05-20T04:57:27;163450.56;;;18.35;95.33
42945;BME280;28584;42.636;23.294;2023-05-20T04:59:53;163688.47;;;19.24;87.04
42945;BME280;28584;42.636;23.294;2023-05-20T05:02:23;163777.28;;;19.57;71.66
42945;BME280;28584;42.636;23.294;2023-05-20T05:04:48;163868.75;;;19.91;65.62
42945;BME280;28584;42.636;23.294;2023-05-20T05:07:14;164077.28;;;20.69;61.75
42945;BME280;28584;42.636;23.294;2023-05-20T05:09:39;164248.28;;;21.32;59.38
42945;BME280;28584;42.636;23.294;2023-05-20T05:12:05;164377.63;;;21.81;58.11
42945;BME280;28584;42.636;23.294;2023-05-20T05:14:30;164428.81;;;22.00;56.42
42945;BME280;28584;42.636;23.294;2023-05-20T05:16:56;164434.19;;;22.02;54.08
42945;BME280;28584;42.636;23.294;2023-05-20T05:19:22;164473.25;;;22.16;54.68
42945;BME280;28584;42.636;23.294;2023-05-20T05:21:47;164378.97;;;21.81;54.84
42945;BME280;28584;42.636;23.294;2023-05-20T05:24:13;164366.84;;;21.77;54.09
42945;BME280;28584;42.636;23.294;2023-05-20T05:26:38;164321.00;;;21.59;54.83
42945;BME280;28584;42.636;23.294;2023-05-20T05:29:03;164365.50;;;21.76;54.86
42945;BME280;28584;42.636;23.294;2023-05-20T05:31:29;164391.13;;;21.86;54.72
42945;BME280;28584;42.636;23.294;2023-05-20T05:33:54;164422.03;;;21.97;56.16
42945;BME280;28584;42.636;23.294;2023-05-20T05:36:22;164458.44;;;22.11;55.10
42945;BME280;28584;42.636;23.294;2023-05-20T05:38:48;164486.72;;;22.21;55.00
42945;BME280;28584;42.636;23.294;2023-05-20T05:41:13;164506.94;;;22.29;53.35
42945;BME280;28584;42.636;23.294;2023-05-20T05:43:38;164574.34;;;22.54;53.46
42945;BME280;28584;42.636;23.294;2023-05-20T05:46:04;164603.97;;;22.65;49.91
42945;BME280;28584;42.636;23.294;2023-05-20T05:48:30;164590.53;;;22.60;48.40
42945;BME280;28584;42.636;23.294;2023-05-20T05:50:55;164632.28;;;22.75;50.70
42945;BME280;28584;42.636;23.294;2023-05-20T05:53:20;164665.97;;;22.88;48.64
42945;BME280;28584;42.636;23.294;2023-05-20T05:55:46;164663.31;;;22.87;49.20
42945;BME280;28584;42.636;23.294;2023-05-20T05:58:11;164571.66;;;22.53;48.28
42945;BME280;28584;42.636;23.294;2023-05-20T06:00:37;164532.53;;;22.38;50.56
42945;BME280;28584;42.636;23.294;2023-05-20T06:03:02;164451.72;;;22.08;50.03
42945;BME280;28584;42.636;23.294;2023-05-20T06:05:28;164436.91;;;22.03;49.03
42945;BME280;28584;42.636;23.294;2023-05-20T06:07:53;164481.34;;;22.19;49.22
42945;BME280;28584;42.636;23.294;2023-05-20T06:10:18;164442.28;;;22.05;48.30
42945;BME280;28584;42.636;23.294;2023-05-20T06:12:44;164449.00;;;22.07;48.41
42945;BME280;28584;42.636;23.294;2023-05-20T06:15:10;164392.44;;;21.86;47.19
42945;BME280;28584;42.636;23.294;2023-05-20T06:17:35;164377.63;;;21.81;48.78
42945;BME280;28584;42.636;23.294;2023-05-20T06:20:01;164356.09;;;21.73;47.65
42945;BME280;28584;42.636;23.294;2023-05-20T06:22:26;164418.00;;;21.96;48.17
42945;BME280;28584;42.636;23.294;2023-05-20T06:24:53;164552.75;;;22.46;47.84
42945;BME280;28584;42.636;23.294;2023-05-20T06:27:20;164726.63;;;23.10;48.10
42945;BME280;28584;42.636;23.294;2023-05-20T06:29:46;164769.84;;;23.26;46.08
42945;BME280;28584;42.636;23.294;2023-05-20T06:32:11;164728.00;;;23.11;45.61
42945;BME280;28584;42.636;23.294;2023-05-20T06:34:36;164760.38;;;23.23;46.20
42945;BME280;28584;42.636;23.294;2023-05-20T06:37:02;164916.78;;;23.81;45.51
42945;BME280;28584;42.636;23.294;2023-05-20T06:39:27;164850.69;;;23.56;44.38
42945;BME280;28584;42.636;23.294;2023-05-20T06:41:53;164835.88;;;23.51;45.59
42945;BME280;28584;42.636;23.294;2023-05-20T06:44:18;164808.91;;;23.41;45.66
42945;BME280;28584;42.636;23.294;2023-05-20T06:46:44;164842.66;;;23.53;45.39
42945;BME280;28584;42.636;23.294;2023-05-20T06:49:09;164872.31;;;23.64;45.32
42945;BME280;28584;42.636;23.294;2023-05-20T06:51:34;164930.25;;;23.86;44.34
42945;BME280;28584;42.636;23.294;2023-05-20T06:54:00;164860.16;;;23.60;43.66
42945;BME280;28584;42.636;23.294;2023-05-20T06:56:25;164942.38;;;23.90;42.83
42945;BME280;28584;42.636;23.294;2023-05-20T06:58:51;164962.69;;;23.98;43.55
42945;BME280;28584;42.636;23.294;2023-05-20T07:01:16;165038.22;;;24.26;43.96
42945;BME280;28584;42.636;23.294;2023-05-20T07:03:42;165078.66;;;24.41;43.27
42945;BME280;28584;42.636;23.294;2023-05-20T07:06:09;165039.59;;;24.27;44.01
42945;BME280;28584;42.636;23.294;2023-05-20T07:08:34;164924.88;;;23.84;43.70
42945;BME280;28584;42.636;23.294;2023-05-20T07:10:59;164881.72;;;23.68;43.90
42945;BME280;28584;42.636;23.294;2023-05-20T07:13:25;165009.88;;;24.16;44.01
42945;BME280;28584;42.636;23.294;2023-05-20T07:15:51;165069.25;;;24.38;43.19
42945;BME280;28584;42.636;23.294;2023-05-20T07:18:16;164941.06;;;23.90;42.92
42945;BME280;28584;42.636;23.294;2023-05-20T07:20:43;164914.09;;;23.80;43.49
42945;BME280;28584;42.636;23.294;2023-05-20T07:23:08;164962.69;;;23.98;44.19
42945;BME280;28584;42.636;23.294;2023-05-20T07:25:34;165038.22;;;24.26;43.46
42945;BME280;28584;42.636;23.294;2023-05-20T07:27:59;165101.59;;;24.50;42.84
42945;BME280;28584;42.636;23.294;2023-05-20T07:30:25;165232.56;;;24.98;42.87
42945;BME280;28584;42.636;23.294;2023-05-20T07:32:51;165136.75;;;24.63;41.52
42945;BME280;28584;42.636;23.294;2023-05-20T07:35:16;165144.84;;;24.66;42.53
42945;BME280;28584;42.636;23.294;2023-05-20T07:37:42;165134.00;;;24.62;41.34
42945;BME280;28584;42.636;23.294;2023-05-20T07:40:08;165065.19;;;24.36;42.50
42945;BME280;28584;42.636;23.294;2023-05-20T07:42:33;165132.66;;;24.61;42.43
42945;BME280;28584;42.636;23.294;2023-05-20T07:44:59;165085.47;;;24.44;42.89
42945;BME280;28584;42.636;23.294;2023-05-20T07:47:24;165219.03;;;24.93;43.24
42945;BME280;28584;42.636;23.294;2023-05-20T07:49:50;165016.66;;;24.18;43.64
42945;BME280;28584;42.636;23.294;2023-05-20T07:52:15;165132.66;;;24.61;43.58
42945;BME280;28584;42.636;23.294;2023-05-20T07:54:41;165020.72;;;24.20;43.64
42945;BME280;28584;42.636;23.294;2023-05-20T07:57:07;165108.34;;;24.52;43.47
42945;BME280;28584;42.636;23.294;2023-05-20T07:59:32;165196.09;;;24.85;43.70
42945;BME280;28584;42.636;23.294;2023-05-20T08:01:57;165343.31;;;25.39;41.69
42945;BME280;28584;42.636;23.294;2023-05-20T08:04:23;165359.47;;;25.45;40.74
42945;BME280;28584;42.636;23.294;2023-05-20T08:06:48;165346.00;;;25.40;40.66
42945;BME280;28584;42.636;23.294;2023-05-20T08:09:14;165305.44;;;25.25;41.75
42945;BME280;28584;42.636;23.294;2023-05-20T08:11:40;165476.91;;;25.89;42.57
42945;BME280;28584;42.636;23.294;2023-05-20T08:14:05;165559.38;;;26.19;40.17
42945;BME280;28584;42.636;23.294;2023-05-20T08:16:31;165549.91;;;26.16;41.21
42945;BME280;28584;42.636;23.294;2023-05-20T08:18:56;165485.03;;;25.92;40.54
42945;BME280;28584;42.636;23.294;2023-05-20T08:21:22;165437.78;;;25.74;41.42
42945;BME280;28584;42.636;23.294;2023-05-20T08:23:47;165329.78;;;25.34;41.75
42945;BME280;28584;42.636;23.294;2023-05-20T08:26:13;165440.47;;;25.75;41.28
42945;BME280;28584;42.636;23.294;2023-05-20T08:28:38;165460.75;;;25.83;41.37
42945;BME280;28584;42.636;23.294;2023-05-20T08:31:04;165651.22;;;26.53;40.68
42945;BME280;28584;42.636;23.294;2023-05-20T08:33:29;165606.63;;;26.37;40.25
42945;BME280;28584;42.636;23.294;2023-05-20T08:35:55;165599.88;;;26.34;40.01
42945;BME280;28584;42.636;23.294;2023-05-20T08:38:20;165547.22;;;26.15;40.68
42945;BME280;28584;42.636;23.294;2023-05-20T08:40:51;165594.50;;;26.32;39.96
42945;BME280;28584;42.636;23.294;2023-05-20T08:43:18;165683.69;;;26.66;40.06
42945;BME280;28584;42.636;23.294;2023-05-20T08:45:43;165613.41;;;26.39;39.92
42945;BME280;28584;42.636;23.294;2023-05-20T08:48:09;165537.72;;;26.11;39.41
42945;BME280;28584;42.636;23.294;2023-05-20T08:50:34;165413.47;;;25.65;41.52
42945;BME280;28584;42.636;23.294;2023-05-20T08:53:00;165408.09;;;25.63;40.34
42945;BME280;28584;42.636;23.294;2023-05-20T08:55:35;165192.03;;;24.83;42.69
42945;BME280;28584;42.636;23.294;2023-05-20T08:58:02;165352.72;;;25.43;40.71
42945;BME280;28584;42.636;23.294;2023-05-20T09:00:27;165421.59;;;25.68;40.60
42945;BME280;28584;42.636;23.294;2023-05-20T09:02:54;165545.84;;;26.14;39.67
42945;BME280;28584;42.636;23.294;2023-05-20T09:05:20;165655.28;;;26.55;39.74
42945;BME280;28584;42.636;23.294;2023-05-20T09:07:46;165676.94;;;26.63;39.67
42945;BME280;28584;42.636;23.294;2023-05-20T09:10:12;165022.03;;;24.20;42.27
42945;BME280;28584;42.636;23.294;2023-05-20T09:12:37;165089.44;;;24.45;42.64
42945;BME280;28584;42.636;23.294;2023-05-20T09:15:03;165313.50;;;25.28;41.40
42945;BME280;28584;42.636;23.294;2023-05-20T09:17:29;165119.19;;;24.56;42.55
42945;BME280;28584;42.636;23.294;2023-05-20T09:19:54;165098.91;;;24.49;43.47
42945;BME280;28584;42.636;23.294;2023-05-20T09:22:25;165301.41;;;25.24;41.97
42945;BME280;28584;42.636;23.294;2023-05-20T09:24:51;165372.97;;;25.50;40.41
42945;BME280;28584;42.636;23.294;2023-05-20T09:27:18;164655.22;;;22.84;44.49
42945;BME280;28584;42.636;23.294;2023-05-20T09:29:46;164651.16;;;22.82;45.44
42945;BME280;28584;42.636;23.294;2023-05-20T09:32:13;164749.53;;;23.19;45.26
42945;BME280;28584;42.636;23.294;2023-05-20T09:34:38;164736.09;;;23.14;45.38
42945;BME280;28584;42.636;23.294;2023-05-20T09:37:06;164843.97;;;23.54;44.65
42945;BME280;28584;42.636;23.294;2023-05-20T09:39:38;164916.78;;;23.81;45.15
42945;BME280;28584;42.636;23.294;2023-05-20T09:42:11;164911.38;;;23.79;43.94
42945;BME280;28584;42.636;23.294;2023-05-20T09:44:41;165057.09;;;24.33;42.79
42945;BME280;28584;42.636;23.294;2023-05-20T09:47:07;165154.28;;;24.69;42.62
42945;BME280;28584;42.636;23.294;2023-05-20T09:49:34;165466.13;;;25.85;41.62
42945;BME280;28584;42.636;23.294;2023-05-20T09:52:02;165572.84;;;26.24;40.68
42945;BME280;28584;42.636;23.294;2023-05-20T09:54:28;165362.19;;;25.46;41.73
42945;BME280;28584;42.636;23.294;2023-05-20T09:56:57;164970.78;;;24.01;42.91
42945;BME280;28584;42.636;23.294;2023-05-20T09:59:23;165089.44;;;24.45;42.17
42945;BME280;28584;42.636;23.294;2023-05-20T10:01:51;164426.09;;;21.99;46.41
42945;BME280;28584;42.636;23.294;2023-05-20T10:04:17;164361.44;;;21.75;48.14
42945;BME280;28584;42.636;23.294;2023-05-20T10:07:37;164621.53;;;22.71;48.72
42945;BME280;28584;42.636;23.294;2023-05-20T10:09:58;164315.59;;;21.57;46.45
42945;BME280;28584;42.636;23.294;2023-05-20T10:15:26;164943.75;;;23.91;45.24
42945;BME280;28584;42.636;23.294;2023-05-20T10:18:05;164097.47;;;20.76;47.96
42945;BME280;28584;42.636;23.294;2023-05-20T10:20:44;164259.06;;;21.36;49.33
42945;BME280;28584;42.636;23.294;2023-05-20T10:23:28;164272.53;;;21.41;48.91
42945;BME280;28584;42.636;23.294;2023-05-20T10:25:55;164547.34;;;22.44;48.06
42945;BME280;28584;42.636;23.294;2023-05-20T10:30:53;164759.06;;;23.22;45.31
42945;BME280;28584;42.636;23.294;2023-05-20T10:33:19;164633.66;;;22.76;46.71
42945;BME280;28584;42.636;23.294;2023-05-20T10:35:50;164573.03;;;22.53;46.17
42945;BME280;28584;42.636;23.294;2023-05-20T10:38:17;164710.44;;;23.04;45.44
42945;BME280;28584;42.636;23.294;2023-05-20T10:40:42;164467.84;;;22.14;46.09
42945;BME280;28584;42.636;23.294;2023-05-20T10:43:15;164450.34;;;22.08;45.75
42945;BME280;28584;42.636;23.294;2023-05-20T10:45:53;164586.47;;;22.58;45.83
42945;BME280;28584;42.636;23.294;2023-05-20T10:48:30;164612.06;;;22.68;44.24
42945;BME280;28584;42.636;23.294;2023-05-20T10:51:00;164582.44;;;22.57;45.36
42945;BME280;28584;42.636;23.294;2023-05-20T10:53:28;165015.28;;;24.18;42.53
42945;BME280;28584;42.636;23.294;2023-05-20T10:55:55;165312.19;;;25.28;40.01
42945;BME280;28584;42.636;23.294;2023-05-20T10:58:22;164969.41;;;24.00;41.39
42945;BME280;28584;42.636;23.294;2023-05-20T11:00:52;164494.78;;;22.24;43.65
42945;BME280;28584;42.636;23.294;2023-05-20T11:03:20;164455.78;;;22.10;45.52
42945;BME280;28584;42.636;23.294;2023-05-20T11:05:46;164512.34;;;22.31;45.76
42945;BME280;28584;42.636;23.294;2023-05-20T11:08:12;164167.56;;;21.02;47.02
42945;BME280;28584;42.636;23.294;2023-05-20T11:10:40;164279.28;;;21.44;46.93
42945;BME280;28584;42.636;23.294;2023-05-20T11:13:06;164374.94;;;21.80;46.38
42945;BME280;28584;42.636;23.294;2023-05-20T11:15:33;164290.03;;;21.48;45.99
42945;BME280;28584;42.636;23.294;2023-05-20T11:18:02;164073.25;;;20.67;47.36
42945;BME280;28584;42.636;23.294;2023-05-20T11:20:27;164105.56;;;20.79;47.57
42945;BME280;28584;42.636;23.294;2023-05-20T11:22:53;164170.22;;;21.03;47.03
42945;BME280;28584;42.636;23.294;2023-05-20T11:25:19;164237.53;;;21.28;45.90
42945;BME280;28584;42.636;23.294;2023-05-20T11:27:45;164299.47;;;21.51;45.35
42945;BME280;28584;42.636;23.294;2023-05-20T11:30:12;164201.19;;;21.15;45.96
42945;BME280;28584;42.636;23.294;2023-05-20T11:33:01;164186.41;;;21.09;47.28
42945;BME280;28584;42.636;23.294;2023-05-20T11:35:29;164269.88;;;21.40;47.74
42945;BME280;28584;42.636;23.294;2023-05-20T11:38:03;164357.41;;;21.73;48.04
42945;BME280;28584;42.636;23.294;2023-05-20T11:40:30;164471.88;;;22.16;47.10
42945;BME280;28584;42.636;23.294;2023-05-20T11:42:59;164533.88;;;22.39;46.30
42945;BME280;28584;42.636;23.294;2023-05-20T11:45:25;164374.94;;;21.80;47.11
42945;BME280;28584;42.636;23.294;2023-05-20T11:48:02;164426.09;;;21.99;47.11
42945;BME280;28584;42.636;23.294;2023-05-20T11:50:33;164544.66;;;22.43;47.17
42945;BME280;28584;42.636;23.294;2023-05-20T11:53:01;164531.19;;;22.38;45.32
42945;BME280;28584;42.636;23.294;2023-05-20T11:55:27;164581.06;;;22.56;46.06
42945;BME280;28584;42.636;23.294;2023-05-20T11:57:53;164605.34;;;22.65;45.72
42945;BME280;28584;42.636;23.294;2023-05-20T12:00:18;164575.69;;;22.54;46.05
42945;BME280;28584;42.636;23.294;2023-05-20T12:02:45;164414.00;;;21.94;47.48
42945;BME280;28584;42.636;23.294;2023-05-20T12:05:11;164419.38;;;21.96;47.25
42945;BME280;28584;42.636;23.294;2023-05-20T12:07:38;164458.44;;;22.11;47.45
42945;BME280;28584;42.636;23.294;2023-05-20T12:10:04;164385.72;;;21.84;47.11
42945;BME280;28584;42.636;23.294;2023-05-20T12:12:29;164294.06;;;21.49;47.98
42945;BME280;28584;42.636;23.294;2023-05-20T12:14:55;164234.84;;;21.27;48.83
42945;BME280;28584;42.636;23.294;2023-05-20T12:17:20;164167.56;;;21.02;48.83
42945;BME280;28584;42.636;23.294;2023-05-20T12:19:46;164070.56;;;20.66;50.68
42945;BME280;28584;42.636;23.294;2023-05-20T12:22:11;164022.13;;;20.48;51.11
42945;BME280;28584;42.636;23.294;2023-05-20T12:24:37;163992.53;;;20.37;51.05
42945;BME280;28584;42.636;23.294;2023-05-20T12:27:02;163993.84;;;20.38;51.42
42945;BME280;28584;42.636;23.294;2023-05-20T12:29:33;163933.31;;;20.15;52.48
42945;BME280;28584;42.636;23.294;2023-05-20T12:31:59;163812.22;;;19.70;54.10
42945;BME280;28584;42.636;23.294;2023-05-20T12:34:25;163513.72;;;18.59;54.25
42945;BME280;28584;42.636;23.294;2023-05-20T12:36:50;163379.31;;;18.09;56.37